Time;durP1;ratioP1;P1;durP2;ratioP2;P2;SDS_P1;SDS_P2;PMS_P1;PMS_P2;Temp;Humidity;BMP_temperature;BMP_pressure;BME280_temperature;BME280_humidity;BME280_pressure;Samples;Min_cycle;Max_cycle;Signal;HPM_P1;HPM_P2
2021/08/23 00:01:35;;;;;;;18.02;12.50;;;18.40;60.60;;;;;;5033926;28;20520;-77
2021/08/23 00:04:01;;;;;;;17.30;13.10;;;18.40;61.50;;;;;;5032663;28;20915;-76
2021/08/23 00:06:26;;;;;;;18.90;12.00;;;18.40;61.40;;;;;;5032563;28;20563;-75
2021/08/23 00:08:52;;;;;;;14.07;10.83;;;18.40;62.40;;;;;;5033213;28;20391;-76
2021/08/23 00:11:17;;;;;;;15.13;11.60;;;18.40;63.30;;;;;;5035367;28;20391;-76
2021/08/23 00:13:43;;;;;;;24.10;16.80;;;18.40;63.50;;;;;;5037593;28;20383;-75
2021/08/23 00:16:08;;;;;;;21.27;15.13;;;18.40;62.50;;;;;;5034965;28;20387;-75
2021/08/23 00:18:34;;;;;;;26.58;15.30;;;18.40;62.30;;;;;;5033265;28;20752;-77
2021/08/23 00:21:02;;;;;;;20.80;13.63;;;18.40;62.00;;;;;;5033053;28;20760;-77
2021/08/23 00:23:35;;;;;;;18.33;12.75;;;18.50;61.80;;;;;;5032431;28;20387;-76
2021/08/23 00:26:01;;;;;;;19.52;12.77;;;18.40;61.90;;;;;;5011799;28;20950;-77
2021/08/23 00:28:27;;;;;;;18.30;12.10;;;18.60;60.00;;;;;;5025881;28;20421;-76
2021/08/23 00:30:52;;;;;;;17.70;12.20;;;18.50;60.40;;;;;;5031600;28;20426;-76
2021/08/23 00:33:18;;;;;;;15.43;11.57;;;18.40;61.20;;;;;;5031650;28;20406;-76
2021/08/23 00:35:44;;;;;;;15.60;11.57;;;18.40;61.90;;;;;;5013620;28;20395;-77
2021/08/23 00:38:10;;;;;;;15.52;12.60;;;18.30;63.10;;;;;;5030905;28;20484;-75
2021/08/23 00:40:35;;;;;;;21.45;14.00;;;18.30;63.50;;;;;;5031049;28;20441;-74
2021/08/23 00:43:01;;;;;;;21.25;14.00;;;18.20;64.40;;;;;;5018099;28;20396;-77
2021/08/23 00:45:27;;;;;;;25.55;16.27;;;18.30;63.80;;;;;;5010276;28;20396;-77
2021/08/23 00:47:52;;;;;;;29.27;19.38;;;18.20;64.00;;;;;;5011126;28;20447;-77
2021/08/23 00:50:19;;;;;;;26.10;19.43;;;18.10;65.80;;;;;;5011412;28;20388;-77
2021/08/23 00:52:45;;;;;;;27.40;18.25;;;18.00;66.40;;;;;;5027224;28;20391;-76
2021/08/23 00:55:10;;;;;;;26.17;16.53;;;17.90;68.00;;;;;;5031266;28;20397;-76
2021/08/23 00:57:41;;;;;;;25.40;15.50;;;17.80;69.70;;;;;;5031129;28;20384;-77
2021/08/23 01:00:07;;;;;;;20.85;15.10;;;17.90;70.90;;;;;;5031602;28;20743;-75
2021/08/23 01:02:56;;;;;;;24.73;14.77;;;18.00;68.40;;;;;;5030815;28;20387;-75
2021/08/23 01:05:27;;;;;;;22.00;14.70;;;17.90;68.40;;;;;;5030804;28;20398;-76
2021/08/23 01:07:55;;;;;;;19.83;14.10;;;17.80;70.70;;;;;;5030683;28;20398;-76
2021/08/23 01:10:27;;;;;;;19.87;14.13;;;17.60;72.20;;;;;;5030946;28;20935;-76
2021/08/23 01:12:54;;;;;;;19.80;13.67;;;17.50;74.30;;;;;;5030649;28;20474;-76
2021/08/23 01:15:20;;;;;;;21.33;15.07;;;17.40;76.10;;;;;;5031270;28;20410;-77
2021/08/23 01:17:46;;;;;;;21.00;15.90;;;17.30;78.20;;;;;;5030267;28;20387;-77
2021/08/23 01:20:12;;;;;;;22.20;15.57;;;17.30;77.30;;;;;;5030711;28;20441;-76
2021/08/23 01:22:43;;;;;;;25.05;16.00;;;17.40;77.00;;;;;;5030743;28;20381;-76
2021/08/23 01:25:13;;;;;;;21.63;16.10;;;17.40;77.60;;;;;;5030881;28;20379;-76
2021/08/23 01:27:41;;;;;;;23.45;15.90;;;17.40;77.20;;;;;;5030527;28;20387;-77
2021/08/23 01:30:12;;;;;;;18.02;14.07;;;17.40;77.00;;;;;;5030780;28;20395;-76
2021/08/23 01:32:39;;;;;;;17.55;13.60;;;17.50;76.50;;;;;;5030171;28;20402;-77
2021/08/23 01:35:07;;;;;;;20.30;13.40;;;17.40;77.10;;;;;;5030465;28;20383;-75
2021/08/23 01:37:35;;;;;;;17.73;13.05;;;17.30;78.50;;;;;;5030368;28;20375;-76
2021/08/23 01:40:03;;;;;;;20.42;13.93;;;17.10;80.20;;;;;;5032517;28;20394;-75
2021/08/23 01:42:30;;;;;;;18.63;12.95;;;17.00;82.10;;;;;;5032747;28;20387;-76
2021/08/23 01:44:56;;;;;;;19.90;13.50;;;16.90;83.60;;;;;;5030165;28;20760;-75
2021/08/23 01:47:22;;;;;;;18.95;12.75;;;16.80;85.40;;;;;;5013596;28;20375;-76
2021/08/23 01:49:47;;;;;;;17.10;11.80;;;16.90;85.20;;;;;;5030783;28;20740;-75
2021/08/23 01:52:13;;;;;;;18.13;12.63;;;16.90;84.80;;;;;;5031020;28;20379;-75
2021/08/23 01:54:43;;;;;;;17.05;12.90;;;16.70;86.10;;;;;;5030792;28;20378;-75
2021/08/23 01:57:15;;;;;;;23.20;14.75;;;16.80;86.70;;;;;;5030422;28;20477;-75
2021/08/23 01:59:41;;;;;;;17.10;13.10;;;16.60;87.80;;;;;;5030543;28;20461;-75
2021/08/23 02:02:07;;;;;;;21.40;13.67;;;16.40;89.00;;;;;;5030934;28;20399;-76
2021/08/23 02:04:32;;;;;;;19.05;14.23;;;16.40;92.50;;;;;;5031819;28;20473;-75
2021/08/23 02:06:58;;;;;;;18.87;13.67;;;16.50;92.30;;;;;;5031842;28;20911;-76
2021/08/23 02:09:23;;;;;;;22.40;15.17;;;16.50;90.80;;;;;;5031032;28;20406;-75
2021/08/23 02:11:49;;;;;;;21.00;13.90;;;16.40;91.50;;;;;;5030184;28;20752;-74
2021/08/23 02:14:15;;;;;;;19.05;13.98;;;16.20;92.80;;;;;;5030291;28;20478;-75
2021/08/23 02:16:41;;;;;;;19.73;14.23;;;16.10;94.80;;;;;;5030140;28;20392;-76
2021/08/23 02:19:07;;;;;;;15.57;12.63;;;16.00;96.70;;;;;;5030076;28;20379;-75
2021/08/23 02:21:48;;;;;;;19.63;12.55;;;16.00;97.90;;;;;;5029991;28;20805;-75
2021/08/23 02:24:14;;;;;;;19.70;14.15;;;16.00;98.60;;;;;;5029744;28;20410;-74
2021/08/23 02:26:40;;;;;;;19.70;13.68;;;16.00;98.90;;;;;;5029773;28;20391;-74
2021/08/23 02:29:05;;;;;;;18.07;14.37;;;16.00;99.00;;;;;;5029842;28;20441;-74
2021/08/23 02:31:31;;;;;;;23.07;14.20;;;16.00;99.40;;;;;;5029989;28;20448;-74
2021/08/23 02:33:56;;;;;;;17.97;14.17;;;15.90;99.90;;;;;;5030218;28;20494;-75
2021/08/23 02:36:22;;;;;;;24.27;14.85;;;15.90;99.90;;;;;;5030041;28;20457;-74
2021/08/23 02:38:49;;;;;;;20.47;14.13;;;15.90;99.90;;;;;;5029982;28;20388;-75
2021/08/23 02:41:15;;;;;;;18.75;14.50;;;15.80;99.90;;;;;;5011837;28;20409;-75
2021/08/23 02:43:41;;;;;;;25.38;16.63;;;15.80;99.90;;;;;;5028822;28;20395;-75
2021/08/23 02:46:06;;;;;;;24.40;16.90;;;15.70;99.90;;;;;;5030510;28;20391;-75
2021/08/23 02:48:32;;;;;;;22.20;15.75;;;15.70;99.90;;;;;;5033781;28;20411;-75
2021/08/23 02:50:57;;;;;;;25.63;15.50;;;15.80;99.90;;;;;;5033657;28;20895;-76
2021/08/23 02:53:23;;;;;;;23.90;15.40;;;15.90;99.90;;;;;;5033597;28;20879;-75
2021/08/23 02:55:48;;;;;;;23.63;14.45;;;16.00;99.90;;;;;;5033565;28;20395;-74
2021/08/23 02:58:14;;;;;;;19.13;14.63;;;16.00;99.90;;;;;;5033234;28;20418;-76
2021/08/23 03:00:40;;;;;;;22.97;14.67;;;16.10;99.90;;;;;;5033438;28;20457;-76
2021/08/23 03:03:06;;;;;;;23.15;15.45;;;16.20;99.90;;;;;;5032800;28;20411;-75
2021/08/23 03:05:32;;;;;;;23.00;14.93;;;16.30;99.90;;;;;;5033253;28;20883;-75
2021/08/23 03:07:57;;;;;;;19.58;14.48;;;16.40;99.90;;;;;;5015380;28;20387;-75
2021/08/23 03:10:23;;;;;;;19.73;14.27;;;16.50;99.60;;;;;;5033236;28;20414;-75
2021/08/23 03:12:48;;;;;;;19.57;14.13;;;16.50;98.90;;;;;;5032951;28;20467;-75
2021/08/23 03:15:14;;;;;;;23.83;14.75;;;16.60;98.50;;;;;;5033231;28;20386;-75
2021/08/23 03:17:40;;;;;;;25.87;16.03;;;16.70;97.50;;;;;;5032404;28;20426;-76
2021/08/23 03:20:06;;;;;;;22.97;14.60;;;16.70;95.90;;;;;;5032670;28;20395;-75
2021/08/23 03:22:31;;;;;;;18.35;13.25;;;16.90;93.80;;;;;;5032746;28;20415;-74
2021/08/23 03:24:57;;;;;;;20.60;15.47;;;16.90;91.60;;;;;;5033343;28;20430;-75
2021/08/23 03:27:22;;;;;;;20.63;15.10;;;17.10;88.90;;;;;;5032942;28;20392;-74
2021/08/23 03:29:51;;;;;;;22.70;15.43;;;17.20;85.80;;;;;;5032794;28;20466;-75
2021/08/23 03:32:17;;;;;;;22.20;15.60;;;17.40;82.50;;;;;;5032395;28;20588;-75
2021/08/23 03:34:43;;;;;;;22.88;15.15;;;17.50;80.20;;;;;;5032449;28;20803;-75
2021/08/23 03:37:09;;;;;;;25.98;14.95;;;17.60;76.70;;;;;;5032561;28;20463;-74
2021/08/23 03:39:34;;;;;;;22.77;15.32;;;17.60;77.30;;;;;;5032603;28;20392;-75
2021/08/23 03:42:00;;;;;;;24.00;15.57;;;17.60;77.70;;;;;;5032150;28;20407;-75
2021/08/23 03:44:26;;;;;;;23.50;16.90;;;17.60;79.10;;;;;;5031941;28;20391;-75
2021/08/23 03:46:52;;;;;;;24.80;16.80;;;17.50;80.10;;;;;;5032129;28;20464;-75
2021/08/23 03:49:18;;;;;;;24.88;17.77;;;17.50;82.00;;;;;;5032238;28;20387;-75
2021/08/23 03:51:44;;;;;;;26.58;18.92;;;17.40;83.50;;;;;;5032102;28;20471;-74
2021/08/23 03:54:09;;;;;;;28.70;19.92;;;17.50;84.70;;;;;;5032055;28;20899;-75
2021/08/23 03:56:35;;;;;;;29.23;20.50;;;17.60;80.50;;;;;;5032331;28;20756;-74
2021/08/23 03:59:00;;;;;;;33.13;21.77;;;17.50;81.60;;;;;;5031071;28;20398;-74
2021/08/23 04:01:26;;;;;;;30.87;22.50;;;17.70;80.90;;;;;;5031897;28;20473;-74
2021/08/23 04:03:52;;;;;;;30.63;21.58;;;17.60;81.20;;;;;;5031655;28;20402;-74
2021/08/23 04:06:17;;;;;;;33.45;21.83;;;17.50;82.00;;;;;;5032224;28;20383;-76
2021/08/23 04:08:43;;;;;;;31.93;20.97;;;17.50;82.30;;;;;;5031597;28;20382;-74
2021/08/23 04:11:13;;;;;;;29.33;21.10;;;17.40;82.60;;;;;;5033720;28;20402;-74
2021/08/23 04:13:40;;;;;;;34.22;21.02;;;17.40;83.50;;;;;;5031449;28;20395;-74
2021/08/23 04:16:10;;;;;;;33.70;21.95;;;17.60;82.30;;;;;;5031545;28;20421;-75
2021/08/23 04:18:36;;;;;;;28.60;20.25;;;17.70;80.80;;;;;;5031326;28;20388;-75
2021/08/23 04:21:01;;;;;;;29.20;20.73;;;18.00;73.00;;;;;;5031362;28;20453;-75
2021/08/23 04:23:27;;;;;;;30.20;22.20;;;17.90;72.00;;;;;;5031543;28;20387;-75
2021/08/23 04:25:52;;;;;;;33.58;22.15;;;17.70;75.80;;;;;;5030992;28;20395;-76
2021/08/23 04:28:18;;;;;;;31.17;21.27;;;17.50;78.60;;;;;;5031228;28;20379;-75
2021/08/23 04:30:44;;;;;;;33.07;22.17;;;17.30;81.10;;;;;;5031479;28;20387;-75
2021/08/23 04:33:09;;;;;;;29.70;20.83;;;17.10;83.30;;;;;;5031461;28;20411;-75
2021/08/23 04:35:35;;;;;;;36.70;23.67;;;17.00;86.30;;;;;;5031346;28;20748;-74
2021/08/23 04:38:00;;;;;;;31.08;22.30;;;17.00;87.90;;;;;;5031056;28;21021;-75
2021/08/23 04:40:26;;;;;;;31.60;22.37;;;16.90;88.90;;;;;;5031031;28;21000;-74
2021/08/23 04:42:51;;;;;;;31.10;22.70;;;17.00;89.40;;;;;;5031085;28;20387;-75
2021/08/23 04:45:17;;;;;;;31.38;21.73;;;17.20;88.40;;;;;;5031317;28;20397;-74
2021/08/23 04:47:43;;;;;;;31.67;22.02;;;17.30;85.60;;;;;;5031018;28;20795;-75
2021/08/23 04:50:09;;;;;;;39.73;25.07;;;17.30;84.10;;;;;;5031178;28;20523;-74
2021/08/23 04:52:41;;;;;;;33.63;23.27;;;17.50;82.50;;;;;;5030618;28;20427;-75
2021/08/23 04:55:08;;;;;;;33.27;22.57;;;17.80;75.50;;;;;;5031073;28;20394;-74
2021/08/23 04:57:33;;;;;;;34.10;22.98;;;17.90;73.60;;;;;;5032117;28;20776;-76
2021/08/23 04:59:59;;;;;;;30.55;22.20;;;18.00;71.50;;;;;;5031104;28;20459;-76
2021/08/23 05:02:24;;;;;;;34.90;23.90;;;18.00;71.20;;;;;;5030771;28;20403;-75
2021/08/23 05:04:50;;;;;;;39.57;24.07;;;17.80;74.80;;;;;;5030589;28;20490;-76
2021/08/23 05:07:15;;;;;;;32.15;22.80;;;18.00;72.50;;;;;;5030775;28;20390;-76
2021/08/23 05:09:41;;;;;;;37.90;23.53;;;18.20;68.40;;;;;;5030053;28;20440;-75
2021/08/23 05:12:07;;;;;;;39.90;24.10;;;18.20;69.10;;;;;;5030924;28;20720;-75
2021/08/23 05:14:32;;;;;;;39.15;24.02;;;18.00;71.20;;;;;;5030526;28;20725;-75
2021/08/23 05:16:58;;;;;;;36.00;23.80;;;18.20;68.40;;;;;;5030569;28;20402;-76
2021/08/23 05:19:23;;;;;;;34.77;24.00;;;18.10;69.20;;;;;;5030054;28;20405;-77
2021/08/23 05:21:49;;;;;;;32.53;22.90;;;18.00;71.60;;;;;;5030710;28;20494;-76
2021/08/23 05:24:14;;;;;;;37.10;24.48;;;18.00;73.80;;;;;;5031283;28;20419;-77
2021/08/23 05:26:40;;;;;;;32.77;23.00;;;18.10;70.40;;;;;;5030580;28;20380;-75
2021/08/23 05:29:05;;;;;;;34.60;21.60;;;18.20;70.30;;;;;;5030306;28;20481;-76
2021/08/23 05:31:31;;;;;;;32.90;22.75;;;18.50;65.50;;;;;;5030544;28;20391;-76
2021/08/23 05:33:57;;;;;;;31.77;21.25;;;18.60;63.50;;;;;;5029779;28;20409;-75
2021/08/23 05:36:23;;;;;;;31.43;21.57;;;18.70;62.80;;;;;;5030221;28;20872;-74
2021/08/23 05:38:49;;;;;;;30.63;20.20;;;18.70;62.50;;;;;;5012202;28;20395;-74
2021/08/23 05:41:14;;;;;;;29.70;19.63;;;18.70;62.20;;;;;;5030360;28;20504;-76
2021/08/23 05:43:40;;;;;;;33.97;20.40;;;18.70;62.90;;;;;;5029845;28;20783;-75
2021/08/23 05:46:05;;;;;;;29.50;20.00;;;18.70;62.70;;;;;;5029099;28;20467;-75
2021/08/23 05:48:32;;;;;;;30.45;19.50;;;18.60;64.50;;;;;;5029118;28;20403;-77
2021/08/23 05:50:57;;;;;;;31.77;20.48;;;18.80;62.70;;;;;;5030186;28;20403;-76
2021/08/23 05:53:23;;;;;;;27.35;20.23;;;18.90;62.20;;;;;;5029935;28;20921;-76
2021/08/23 05:55:49;;;;;;;29.70;21.42;;;18.80;63.00;;;;;;5030050;28;20394;-75
2021/08/23 05:58:14;;;;;;;30.65;21.50;;;18.80;62.00;;;;;;5029647;28;20390;-77
2021/08/23 06:00:40;;;;;;;29.93;22.20;;;18.80;63.40;;;;;;5029654;28;20449;-78
2021/08/23 06:03:05;;;;;;;31.40;22.37;;;18.90;61.60;;;;;;5030149;28;20387;-75
2021/08/23 06:05:31;;;;;;;36.70;23.95;;;18.90;62.80;;;;;;5029981;28;20855;-75
2021/08/23 06:07:58;;;;;;;32.80;22.75;;;19.10;59.50;;;;;;5030066;28;20768;-77
2021/08/23 06:10:23;;;;;;;28.13;20.33;;;19.20;59.40;;;;;;5030559;28;20755;-76
2021/08/23 06:12:49;;;;;;;28.93;18.57;;;19.40;56.70;;;;;;5030166;28;20391;-76
2021/08/23 06:15:14;;;;;;;30.15;21.45;;;19.50;55.70;;;;;;5029666;28;20490;-77
2021/08/23 06:17:40;;;;;;;28.90;20.10;;;19.50;55.70;;;;;;5029865;28;20929;-76
2021/08/23 06:20:07;;;;;;;30.13;20.40;;;19.60;54.80;;;;;;5012442;28;20407;-77
2021/08/23 06:22:33;;;;;;;31.48;21.80;;;19.70;54.10;;;;;;5033821;28;20477;-76
2021/08/23 06:24:58;;;;;;;32.35;22.35;;;19.90;53.50;;;;;;5033982;28;20466;-77
2021/08/23 06:27:24;;;;;;;34.90;24.73;;;20.00;53.50;;;;;;5033565;28;20393;-77
2021/08/23 06:29:49;;;;;;;40.78;25.83;;;20.10;51.30;;;;;;5033312;28;20394;-77
2021/08/23 06:32:15;;;;;;;40.40;27.27;;;20.30;48.80;;;;;;5033835;28;20486;-76
2021/08/23 06:34:41;;;;;;;37.63;25.90;;;20.20;49.00;;;;;;5016549;28;20393;-77
2021/08/23 06:37:06;;;;;;;38.15;25.08;;;20.30;49.60;;;;;;5013316;28;20408;-76
2021/08/23 06:39:32;;;;;;;37.07;25.70;;;20.20;49.90;;;;;;5014338;28;20416;-76
2021/08/23 06:41:57;;;;;;;40.47;27.23;;;20.00;51.20;;;;;;5012829;28;20483;-76
2021/08/23 06:44:23;;;;;;;42.40;28.73;;;19.80;51.80;;;;;;5013128;28;20388;-76
2021/08/23 06:46:48;;;;;;;44.47;29.07;;;19.70;54.80;;;;;;5014580;28;20427;-76
2021/08/23 06:49:14;;;;;;;44.83;29.00;;;19.60;54.80;;;;;;5014485;28;20464;-76
2021/08/23 06:51:40;;;;;;;42.88;28.90;;;19.70;54.10;;;;;;5015543;28;20388;-77
2021/08/23 06:54:05;;;;;;;43.10;29.38;;;19.70;54.20;;;;;;5013462;28;20397;-76
2021/08/23 06:56:31;;;;;;;49.90;31.40;;;19.70;55.50;;;;;;5015602;28;20400;-77
2021/08/23 06:58:57;;;;;;;49.40;30.63;;;19.70;54.60;;;;;;5015738;28;20401;-76
2021/08/23 07:01:26;;;;;;;43.22;29.73;;;19.90;53.60;;;;;;5015767;28;20404;-77
2021/08/23 07:03:53;;;;;;;42.70;29.60;;;20.00;53.30;;;;;;5007393;28;20409;-75
2021/08/23 07:06:18;;;;;;;40.88;29.00;;;20.10;50.60;;;;;;5016943;28;20428;-76
2021/08/23 07:08:45;;;;;;;45.23;30.20;;;20.00;51.20;;;;;;5013953;28;20389;-76
2021/08/23 07:11:11;;;;;;;45.90;30.58;;;20.10;51.10;;;;;;5013422;28;20531;-76
2021/08/23 07:13:37;;;;;;;50.53;32.83;;;20.10;51.60;;;;;;5012803;28;20415;-76
2021/08/23 07:16:03;;;;;;;50.75;34.25;;;19.90;52.40;;;;;;5013018;28;20412;-76
2021/08/23 07:18:30;;;;;;;53.27;37.33;;;20.00;52.30;;;;;;5012299;28;20392;-76
2021/08/23 07:20:55;;;;;;;58.67;39.85;;;20.10;51.70;;;;;;5013439;28;20404;-77
2021/08/23 07:23:21;;;;;;;57.15;39.40;;;20.00;51.30;;;;;;5013469;28;20616;-78
2021/08/23 07:25:47;;;;;;;60.13;41.25;;;19.90;51.30;;;;;;5012767;28;20412;-76
2021/08/23 07:28:13;;;;;;;64.95;42.35;;;19.80;52.70;;;;;;4999982;28;20877;-77
2021/08/23 07:30:40;;;;;;;62.58;41.42;;;19.80;54.20;;;;;;5013692;28;20523;-77
2021/08/23 07:33:05;;;;;;;59.38;41.83;;;19.60;52.60;;;;;;5020876;28;20407;-77
2021/08/23 07:35:31;;;;;;;63.73;44.47;;;19.60;52.40;;;;;;5033372;28;20394;-76
2021/08/23 07:37:56;;;;;;;66.07;43.27;;;19.60;53.50;;;;;;5014373;28;20410;-77
2021/08/23 07:40:22;;;;;;;66.07;43.07;;;19.70;52.70;;;;;;5032495;28;20497;-76
2021/08/23 07:42:47;;;;;;;65.53;43.78;;;19.80;52.90;;;;;;5032658;28;20391;-76
2021/08/23 07:45:14;;;;;;;69.00;45.60;;;19.70;53.40;;;;;;5032365;28;20789;-77
2021/08/23 07:47:42;;;;;;;73.55;45.55;;;19.70;53.60;;;;;;5033186;28;20403;-76
2021/08/23 07:50:08;;;;;;;73.07;44.95;;;19.60;54.60;;;;;;5033103;28;20391;-76
2021/08/23 07:52:34;;;;;;;61.27;41.10;;;19.60;54.20;;;;;;5032817;28;20478;-76
2021/08/23 07:54:59;;;;;;;59.13;39.60;;;19.60;53.90;;;;;;5034757;28;20501;-77
2021/08/23 07:57:25;;;;;;;62.55;39.33;;;19.40;55.10;;;;;;5033647;28;20469;-76
2021/08/23 07:59:50;;;;;;;60.60;37.40;;;19.50;54.50;;;;;;5034444;28;20417;-76
2021/08/23 08:02:16;;;;;;;55.47;36.73;;;19.40;55.30;;;;;;5015509;28;20407;-76
2021/08/23 08:04:42;;;;;;;55.28;36.20;;;19.40;55.20;;;;;;5031384;28;20399;-77
2021/08/23 08:07:07;;;;;;;56.53;35.10;;;19.20;56.80;;;;;;5031592;28;20894;-76
2021/08/23 08:09:33;;;;;;;66.03;40.50;;;19.10;59.30;;;;;;5032756;28;20399;-77
2021/08/23 08:11:58;;;;;;;58.23;40.57;;;19.10;61.60;;;;;;5032515;28;20399;-78
2021/08/23 08:14:24;;;;;;;54.38;37.95;;;19.10;59.50;;;;;;5033199;28;20403;-78
2021/08/23 08:16:49;;;;;;;51.27;37.30;;;19.20;57.80;;;;;;5034010;28;20405;-77
2021/08/23 08:19:15;;;;;;;48.00;34.70;;;19.30;56.90;;;;;;5032299;28;20407;-77
2021/08/23 08:21:41;;;;;;;48.42;34.38;;;19.50;52.50;;;;;;5032379;28;20414;-77
2021/08/23 08:24:06;;;;;;;48.38;33.30;;;19.40;53.10;;;;;;5033566;28;20399;-77
2021/08/23 08:26:32;;;;;;;46.85;32.63;;;19.40;54.30;;;;;;5033431;28;20422;-77
2021/08/23 08:28:58;;;;;;;45.55;30.65;;;19.30;53.70;;;;;;5018718;28;20406;-79
2021/08/23 08:31:23;;;;;;;43.87;31.20;;;19.10;54.90;;;;;;5034839;28;20426;-76
2021/08/23 08:33:49;;;;;;;44.70;30.30;;;19.20;55.50;;;;;;5031999;28;20415;-76
2021/08/23 08:36:15;;;;;;;44.33;29.97;;;19.40;54.30;;;;;;5037301;28;20398;-78
2021/08/23 08:38:41;;;;;;;39.53;27.15;;;19.50;53.10;;;;;;5035582;28;20502;-76
2021/08/23 08:41:09;;;;;;;41.15;28.63;;;19.60;50.30;;;;;;5025878;28;20407;-77
2021/08/23 08:43:34;;;;;;;35.87;28.10;;;19.50;50.30;;;;;;5032044;28;20481;-76
2021/08/23 08:46:00;;;;;;;36.93;28.03;;;19.70;50.10;;;;;;5033150;28;20406;-76
2021/08/23 08:48:28;;;;;;;36.00;25.42;;;19.80;48.50;;;;;;5034091;28;20387;-76
2021/08/23 08:50:54;;;;;;;34.50;24.93;;;20.00;47.80;;;;;;5032912;28;20403;-76
2021/08/23 08:53:20;;;;;;;32.43;23.27;;;20.10;47.30;;;;;;5032701;28;20456;-77
2021/08/23 08:55:45;;;;;;;28.42;22.95;;;20.40;44.90;;;;;;5031489;28;20409;-78
2021/08/23 08:58:11;;;;;;;31.15;23.00;;;20.50;43.80;;;;;;5034057;28;20395;-77
2021/08/23 09:00:40;;;;;;;29.03;23.20;;;20.60;43.90;;;;;;5032276;28;20407;-76
2021/08/23 09:03:07;;;;;;;25.53;19.50;;;20.60;43.40;;;;;;5030736;28;20467;-77
2021/08/23 09:05:38;;;;;;;23.33;17.13;;;20.60;40.90;;;;;;5031483;28;20453;-75
2021/08/23 09:08:05;;;;;;;19.63;16.40;;;20.50;40.50;;;;;;5014806;28;20431;-77
2021/08/23 09:10:31;;;;;;;19.73;15.23;;;20.50;41.10;;;;;;5036909;28;20398;-77
2021/08/23 09:13:06;;;;;;;18.50;14.40;;;20.70;40.50;;;;;;5030818;28;20756;-77
2021/08/23 09:15:33;;;;;;;21.58;14.05;;;20.70;39.30;;;;;;5031453;28;20755;-76
2021/08/23 09:18:06;;;;;;;21.02;15.55;;;20.70;39.00;;;;;;5019278;28;20395;-77
2021/08/23 09:20:33;;;;;;;17.27;13.00;;;21.00;38.70;;;;;;5014800;28;20953;-76
2021/08/23 09:23:13;;;;;;;16.80;13.10;;;21.20;37.10;;;;;;5033047;28;20383;-77
2021/08/23 09:25:39;;;;;;;17.27;12.30;;;21.10;36.80;;;;;;5031859;28;20790;-76
2021/08/23 09:28:05;;;;;;;18.65;12.30;;;21.20;36.30;;;;;;5032888;28;20394;-77
2021/08/23 09:30:32;;;;;;;17.57;12.27;;;21.40;35.80;;;;;;5030772;28;20910;-76
2021/08/23 09:33:00;;;;;;;17.25;11.30;;;21.70;34.70;;;;;;5030419;28;20399;-74
2021/08/23 09:35:31;;;;;;;15.23;10.75;;;22.00;34.10;;;;;;5030755;28;20474;-76
2021/08/23 09:37:56;;;;;;;12.70;10.43;;;22.20;33.70;;;;;;5013552;28;20398;-76
2021/08/23 09:40:33;;;;;;;15.18;10.25;;;22.30;32.30;;;;;;5027116;28;20406;-76
2021/08/23 09:43:08;;;;;;;16.02;11.50;;;22.10;31.70;;;;;;5012850;28;20402;-74
2021/08/23 09:45:34;;;;;;;13.13;10.63;;;22.20;32.50;;;;;;5030307;28;20383;-76
2021/08/23 09:48:05;;;;;;;12.25;9.38;;;22.30;32.50;;;;;;5030006;28;20470;-75
2021/08/23 09:50:44;;;;;;;13.65;9.63;;;22.40;31.70;;;;;;5029031;28;20398;-75
2021/08/23 09:53:12;;;;;;;14.63;10.90;;;22.40;31.20;;;;;;5029627;28;20493;-74
2021/08/23 09:55:43;;;;;;;12.38;9.57;;;22.40;30.60;;;;;;5031230;28;20403;-74
2021/08/23 09:58:10;;;;;;;19.13;9.87;;;22.40;31.20;;;;;;5033836;28;20480;-76
2021/08/23 10:00:39;;;;;;;16.58;12.00;;;22.50;30.70;;;;;;5034391;28;20465;-76
2021/08/23 10:03:14;;;;;;;16.52;13.15;;;22.50;30.30;;;;;;5034016;28;20395;-76
2021/08/23 10:05:47;;;;;;;16.25;13.50;;;22.30;31.60;;;;;;5033809;28;20380;-76
2021/08/23 10:08:16;;;;;;;16.15;13.20;;;22.20;31.50;;;;;;5033751;28;20760;-75
2021/08/23 10:10:43;;;;;;;20.20;13.25;;;22.40;31.10;;;;;;5033764;28;20709;-76
2021/08/23 10:13:09;;;;;;;18.20;13.82;;;22.50;29.90;;;;;;5016677;28;20884;-76
2021/08/23 10:15:38;;;;;;;21.92;13.07;;;22.70;28.90;;;;;;5034373;28;20429;-74
2021/08/23 10:18:04;;;;;;;20.73;13.93;;;22.80;28.00;;;;;;5034548;28;20419;-75
2021/08/23 10:20:30;;;;;;;18.13;14.23;;;22.30;29.00;;;;;;5033831;28;20409;-75
2021/08/23 10:22:58;;;;;;;18.73;14.63;;;21.80;31.20;;;;;;5016061;28;20387;-76
2021/08/23 10:25:25;;;;;;;20.17;13.82;;;21.50;31.80;;;;;;5033141;28;20478;-75
2021/08/23 10:27:50;;;;;;;17.42;13.98;;;21.40;33.10;;;;;;5033298;28;20406;-75
2021/08/23 10:30:25;;;;;;;19.85;16.42;;;21.60;34.00;;;;;;5033675;28;20375;-75
2021/08/23 10:32:51;;;;;;;22.88;17.05;;;21.90;33.20;;;;;;5032980;28;20432;-76
2021/08/23 10:35:16;;;;;;;24.30;18.80;;;22.30;31.60;;;;;;5033771;28;20383;-75
2021/08/23 10:37:43;;;;;;;26.98;19.10;;;22.40;31.10;;;;;;5033042;28;20409;-75
2021/08/23 10:40:09;;;;;;;21.73;17.60;;;22.40;30.20;;;;;;5006984;28;20810;-75
2021/08/23 10:42:38;;;;;;;24.00;18.08;;;22.50;30.10;;;;;;5028803;28;20418;-75
2021/08/23 10:45:11;;;;;;;24.27;18.88;;;22.70;29.90;;;;;;5033372;28;20379;-75
2021/08/23 10:47:37;;;;;;;21.98;17.20;;;23.00;29.00;;;;;;5014733;28;20729;-75
2021/08/23 10:50:04;;;;;;;21.33;16.75;;;22.60;29.20;;;;;;5034193;28;20414;-75
2021/08/23 10:52:34;;;;;;;21.17;16.77;;;22.50;29.60;;;;;;5033652;28;20434;-75
2021/08/23 10:54:59;;;;;;;23.63;18.88;;;22.30;29.80;;;;;;5033251;28;20387;-76
2021/08/23 10:57:25;;;;;;;23.50;18.20;;;22.20;31.00;;;;;;5033238;28;20406;-75
2021/08/23 11:00:07;;;;;;;22.67;18.70;;;22.20;31.20;;;;;;5034058;28;20382;-75
2021/08/23 11:02:34;;;;;;;22.65;18.00;;;22.50;31.00;;;;;;5034453;28;20411;-76
2021/08/23 11:05:10;;;;;;;20.65;16.90;;;22.40;30.00;;;;;;5039020;28;20376;-76
2021/08/23 11:07:39;;;;;;;27.15;17.92;;;22.30;29.70;;;;;;5036036;28;20415;-76
2021/08/23 11:10:12;;;;;;;23.02;18.20;;;22.20;30.90;;;;;;5039170;28;20410;-76
2021/08/23 11:12:44;;;;;;;24.02;17.02;;;22.20;30.90;;;;;;5039176;28;20395;-76
2021/08/23 11:15:14;;;;;;;22.08;17.40;;;22.00;30.80;;;;;;5033027;28;20395;-77
2021/08/23 11:17:44;;;;;;;24.75;18.00;;;21.80;31.20;;;;;;5017373;28;20488;-76
2021/08/23 11:20:10;;;;;;;23.85;16.90;;;21.70;31.80;;;;;;5017301;28;20443;-76
2021/08/23 11:22:36;;;;;;;26.10;17.10;;;22.20;31.80;;;;;;5032007;28;20415;-76
2021/08/23 11:25:02;;;;;;;20.75;15.80;;;22.60;28.80;;;;;;5033375;28;20419;-75
2021/08/23 11:27:28;;;;;;;20.13;16.70;;;22.50;28.70;;;;;;5032101;28;20569;-76
2021/08/23 11:29:55;;;;;;;19.08;15.85;;;22.60;29.30;;;;;;5013991;28;20406;-76
2021/08/23 11:32:27;;;;;;;20.15;15.50;;;22.70;29.00;;;;;;5032264;28;20406;-75
2021/08/23 11:34:54;;;;;;;20.48;15.43;;;23.00;28.10;;;;;;5032244;28;20427;-76
2021/08/23 11:37:24;;;;;;;16.58;13.88;;;23.20;27.50;;;;;;5032312;28;20883;-75
2021/08/23 11:40:01;;;;;;;22.85;15.18;;;23.20;27.40;;;;;;5028032;28;20411;-75
2021/08/23 11:42:26;;;;;;;19.08;15.02;;;22.70;28.60;;;;;;5032751;28;20791;-75
2021/08/23 11:44:54;;;;;;;20.67;15.87;;;22.30;29.00;;;;;;5032082;28;20482;-75
2021/08/23 11:47:32;;;;;;;20.48;15.20;;;22.20;29.80;;;;;;5032372;28;20750;-75
2021/08/23 11:49:57;;;;;;;17.15;13.30;;;22.50;28.70;;;;;;5033859;28;20414;-75
2021/08/23 11:52:24;;;;;;;20.02;14.40;;;22.60;28.90;;;;;;5032088;28;20525;-75
2021/08/23 11:54:54;;;;;;;20.90;15.65;;;22.40;28.50;;;;;;5031959;28;20383;-75
2021/08/23 11:57:22;;;;;;;16.20;14.00;;;22.60;28.50;;;;;;5031532;28;20406;-75
2021/08/23 11:59:59;;;;;;;18.70;15.93;;;22.70;28.60;;;;;;5031432;28;20403;-74
2021/08/23 12:02:34;;;;;;;21.60;16.15;;;22.80;28.50;;;;;;5031879;28;20464;-75
2021/08/23 12:05:11;;;;;;;19.30;14.88;;;23.00;28.40;;;;;;5032166;28;20391;-74
2021/08/23 12:07:48;;;;;;;16.60;14.05;;;23.50;26.60;;;;;;5031772;28;20870;-76
2021/08/23 12:10:37;;;;;;;19.15;14.80;;;23.70;25.50;;;;;;5031549;28;20478;-76
2021/08/23 12:13:14;;;;;;;16.90;13.68;;;23.80;25.90;;;;;;5031691;28;20414;-76
2021/08/23 12:15:54;;;;;;;16.90;13.55;;;23.80;24.60;;;;;;5031691;28;20399;-76
2021/08/23 12:18:47;;;;;;;14.77;13.05;;;23.70;25.30;;;;;;5031609;28;20887;-76
2021/08/23 12:21:30;;;;;;;15.20;12.98;;;23.90;24.80;;;;;;5030607;28;20419;-78
2021/08/23 12:24:01;;;;;;;16.13;14.18;;;24.30;23.40;;;;;;5031007;28;20936;-76
2021/08/23 12:26:35;;;;;;;16.95;13.88;;;24.50;23.70;;;;;;5031012;28;20410;-76
2021/08/23 12:29:14;;;;;;;19.80;15.00;;;24.40;23.50;;;;;;5032544;28;20387;-75